sensor_id;sensor_type;location;lat;lon;timestamp;temperature;humidity
63966;DHT22;50151;52.030;5.350;2023-12-29T00:02:07;11.10;99.90
63966;DHT22;50151;52.030;5.350;2023-12-29T00:04:34;11.00;99.90
63966;DHT22;50151;52.030;5.350;2023-12-29T00:07:01;11.00;99.90
63966;DHT22;50151;52.030;5.350;2023-12-29T00:09:29;11.10;99.90
63966;DHT22;50151;52.030;5.350;2023-12-29T00:11:56;11.00;99.90
63966;DHT22;50151;52.030;5.350;2023-12-29T00:14:22;10.80;99.90
63966;DHT22;50151;52.030;5.350;2023-12-29T00:16:49;10.60;99.90
63966;DHT22;50151;52.030;5.350;2023-12-29T00:19:16;10.50;99.90
63966;DHT22;50151;52.030;5.350;2023-12-29T00:21:43;10.50;99.90
63966;DHT22;50151;52.030;5.350;2023-12-29T00:24:10;10.50;99.90
63966;DHT22;50151;52.030;5.350;2023-12-29T00:26:37;10.50;99.90
63966;DHT22;50151;52.030;5.350;2023-12-29T00:29:03;10.60;99.90
63966;DHT22;50151;52.030;5.350;2023-12-29T00:31:32;10.60;99.90
63966;DHT22;50151;52.030;5.350;2023-12-29T00:33:59;10.60;99.90
63966;DHT22;50151;52.030;5.350;2023-12-29T00:36:26;10.70;99.90
63966;DHT22;50151;52.030;5.350;2023-12-29T00:38:53;10.70;99.90
63966;DHT22;50151;52.030;5.350;2023-12-29T00:41:19;10.80;99.90
63966;DHT22;50151;52.030;5.350;2023-12-29T00:43:46;10.80;99.90
63966;DHT22;50151;52.030;5.350;2023-12-29T00:46:14;10.80;99.90
63966;DHT22;50151;52.030;5.350;2023-12-29T00:48:42;10.90;99.90
63966;DHT22;50151;52.030;5.350;2023-12-29T00:51:09;10.90;99.90
63966;DHT22;50151;52.030;5.350;2023-12-29T00:53:36;10.90;99.90
63966;DHT22;50151;52.030;5.350;2023-12-29T00:56:09;10.90;99.90
63966;DHT22;50151;52.030;5.350;2023-12-29T00:58:35;10.80;99.90
63966;DHT22;50151;52.030;5.350;2023-12-29T01:01:02;10.90;99.90
63966;DHT22;50151;52.030;5.350;2023-12-29T01:03:29;10.90;99.90
63966;DHT22;50151;52.030;5.350;2023-12-29T01:05:56;10.90;99.90
63966;DHT22;50151;52.030;5.350;2023-12-29T01:08:23;10.90;99.90
63966;DHT22;50151;52.030;5.350;2023-12-29T01:10:50;10.90;99.90
63966;DHT22;50151;52.030;5.350;2023-12-29T01:13:17;10.90;99.90
63966;DHT22;50151;52.030;5.350;2023-12-29T01:15:44;10.90;99.90
63966;DHT22;50151;52.030;5.350;2023-12-29T01:18:12;10.90;99.90
63966;DHT22;50151;52.030;5.350;2023-12-29T01:20:39;10.90;99.90
63966;DHT22;50151;52.030;5.350;2023-12-29T01:23:06;10.90;99.90
63966;DHT22;50151;52.030;5.350;2023-12-29T01:25:33;10.90;99.90
63966;DHT22;50151;52.030;5.350;2023-12-29T01:28:00;10.90;99.90
63966;DHT22;50151;52.030;5.350;2023-12-29T01:30:26;10.80;99.90
63966;DHT22;50151;52.030;5.350;2023-12-29T01:32:53;10.80;99.90
63966;DHT22;50151;52.030;5.350;2023-12-29T01:35:20;10.80;99.90
63966;DHT22;50151;52.030;5.350;2023-12-29T01:37:46;10.80;99.90
63966;DHT22;50151;52.030;5.350;2023-12-29T01:40:13;10.80;99.90
63966;DHT22;50151;52.030;5.350;2023-12-29T01:42:40;10.80;99.90
63966;DHT22;50151;52.030;5.350;2023-12-29T01:45:21;10.70;99.90
63966;DHT22;50151;52.030;5.350;2023-12-29T01:47:50;10.70;99.90
63966;DHT22;50151;52.030;5.350;2023-12-29T01:50:18;10.70;99.90
63966;DHT22;50151;52.030;5.350;2023-12-29T01:52:49;10.70;99.90
63966;DHT22;50151;52.030;5.350;2023-12-29T01:55:18;10.80;99.90
63966;DHT22;50151;52.030;5.350;2023-12-29T01:57:47;10.70;99.90
63966;DHT22;50151;52.030;5.350;2023-12-29T02:00:15;10.70;99.90
63966;DHT22;50151;52.030;5.350;2023-12-29T02:02:44;10.70;99.90
63966;DHT22;50151;52.030;5.350;2023-12-29T02:05:14;10.70;99.90
63966;DHT22;50151;52.030;5.350;2023-12-29T02:07:42;10.60;99.90
63966;DHT22;50151;52.030;5.350;2023-12-29T02:10:09;10.60;99.90
63966;DHT22;50151;52.030;5.350;2023-12-29T02:12:42;10.60;99.90
63966;DHT22;50151;52.030;5.350;2023-12-29T02:15:09;10.60;99.90
63966;DHT22;50151;52.030;5.350;2023-12-29T02:17:41;10.50;99.90
63966;DHT22;50151;52.030;5.350;2023-12-29T02:20:11;10.50;99.90
63966;DHT22;50151;52.030;5.350;2023-12-29T02:22:38;10.50;99.90
63966;DHT22;50151;52.030;5.350;2023-12-29T02:25:06;10.50;99.90
63966;DHT22;50151;52.030;5.350;2023-12-29T02:30:44;10.40;99.90
63966;DHT22;50151;52.030;5.350;2023-12-29T02:33:19;10.40;99.90
63966;DHT22;50151;52.030;5.350;2023-12-29T02:35:49;10.40;99.90
63966;DHT22;50151;52.030;5.350;2023-12-29T02:38:18;10.30;99.90
63966;DHT22;50151;52.030;5.350;2023-12-29T02:40:46;10.30;99.90
63966;DHT22;50151;52.030;5.350;2023-12-29T02:43:12;10.20;99.90
63966;DHT22;50151;52.030;5.350;2023-12-29T02:45:39;10.10;99.90
63966;DHT22;50151;52.030;5.350;2023-12-29T02:48:07;10.10;99.90
63966;DHT22;50151;52.030;5.350;2023-12-29T02:50:33;10.00;99.90
63966;DHT22;50151;52.030;5.350;2023-12-29T02:53:00;9.90;99.90
63966;DHT22;50151;52.030;5.350;2023-12-29T02:55:27;9.90;99.90
63966;DHT22;50151;52.030;5.350;2023-12-29T02:57:54;9.90;99.90
63966;DHT22;50151;52.030;5.350;2023-12-29T03:00:20;9.90;99.90
63966;DHT22;50151;52.030;5.350;2023-12-29T03:02:47;9.90;99.90
63966;DHT22;50151;52.030;5.350;2023-12-29T03:05:14;9.90;99.90
63966;DHT22;50151;52.030;5.350;2023-12-29T03:07:41;9.90;99.90
63966;DHT22;50151;52.030;5.350;2023-12-29T03:10:08;10.00;99.90
63966;DHT22;50151;52.030;5.350;2023-12-29T03:12:35;10.00;99.90
63966;DHT22;50151;52.030;5.350;2023-12-29T03:15:03;10.10;99.90
63966;DHT22;50151;52.030;5.350;2023-12-29T03:17:29;10.10;99.90
63966;DHT22;50151;52.030;5.350;2023-12-29T03:19:58;10.10;99.90
63966;DHT22;50151;52.030;5.350;2023-12-29T03:22:25;10.10;99.90
63966;DHT22;50151;52.030;5.350;2023-12-29T03:24:51;10.00;99.90
63966;DHT22;50151;52.030;5.350;2023-12-29T03:27:18;10.00;99.90
63966;DHT22;50151;52.030;5.350;2023-12-29T03:29:45;10.00;99.90
63966;DHT22;50151;52.030;5.350;2023-12-29T03:32:12;10.00;99.90
63966;DHT22;50151;52.030;5.350;2023-12-29T03:34:38;9.90;99.90
63966;DHT22;50151;52.030;5.350;2023-12-29T03:37:05;10.00;99.90
63966;DHT22;50151;52.030;5.350;2023-12-29T03:39:33;10.00;99.90
63966;DHT22;50151;52.030;5.350;2023-12-29T03:42:02;10.00;99.90
63966;DHT22;50151;52.030;5.350;2023-12-29T03:44:29;10.00;99.90
63966;DHT22;50151;52.030;5.350;2023-12-29T03:46:56;10.00;99.90
63966;DHT22;50151;52.030;5.350;2023-12-29T03:49:22;10.00;99.90
63966;DHT22;50151;52.030;5.350;2023-12-29T03:51:49;9.90;99.90
63966;DHT22;50151;52.030;5.350;2023-12-29T03:54:16;9.90;99.90
63966;DHT22;50151;52.030;5.350;2023-12-29T03:56:44;9.80;99.90
63966;DHT22;50151;52.030;5.350;2023-12-29T03:59:11;9.70;99.90
63966;DHT22;50151;52.030;5.350;2023-12-29T04:01:38;9.70;99.90
63966;DHT22;50151;52.030;5.350;2023-12-29T04:04:04;9.60;99.90
63966;DHT22;50151;52.030;5.350;2023-12-29T04:06:31;9.60;99.90
63966;DHT22;50151;52.030;5.350;2023-12-29T04:08:58;9.60;99.90
63966;DHT22;50151;52.030;5.350;2023-12-29T04:11:25;9.70;99.90
63966;DHT22;50151;52.030;5.350;2023-12-29T04:13:53;9.70;99.90
63966;DHT22;50151;52.030;5.350;2023-12-29T04:16:19;9.70;99.90
63966;DHT22;50151;52.030;5.350;2023-12-29T04:18:46;9.70;99.90
63966;DHT22;50151;52.030;5.350;2023-12-29T04:21:14;9.80;99.90
63966;DHT22;50151;52.030;5.350;2023-12-29T04:23:41;9.80;99.90
63966;DHT22;50151;52.030;5.350;2023-12-29T04:26:10;9.80;99.90
63966;DHT22;50151;52.030;5.350;2023-12-29T04:28:37;9.90;99.90
63966;DHT22;50151;52.030;5.350;2023-12-29T04:31:04;9.90;99.90
63966;DHT22;50151;52.030;5.350;2023-12-29T04:33:31;9.90;99.90
63966;DHT22;50151;52.030;5.350;2023-12-29T04:35:58;9.90;99.90
63966;DHT22;50151;52.030;5.350;2023-12-29T04:38:24;9.90;99.90
63966;DHT22;50151;52.030;5.350;2023-12-29T04:40:51;9.90;99.90
63966;DHT22;50151;52.030;5.350;2023-12-29T04:43:18;9.90;99.90
63966;DHT22;50151;52.030;5.350;2023-12-29T04:45:44;9.90;99.90
63966;DHT22;50151;52.030;5.350;2023-12-29T04:48:11;9.90;99.90
63966;DHT22;50151;52.030;5.350;2023-12-29T04:50:39;9.90;99.90
63966;DHT22;50151;52.030;5.350;2023-12-29T04:53:05;9.90;99.90
63966;DHT22;50151;52.030;5.350;2023-12-29T04:55:32;9.90;99.90
63966;DHT22;50151;52.030;5.350;2023-12-29T04:57:59;9.90;99.90
63966;DHT22;50151;52.030;5.350;2023-12-29T05:00:26;9.90;99.90
63966;DHT22;50151;52.030;5.350;2023-12-29T05:02:52;9.90;99.90
63966;DHT22;50151;52.030;5.350;2023-12-29T05:05:19;9.90;99.90
63966;DHT22;50151;52.030;5.350;2023-12-29T05:07:46;9.90;99.90
63966;DHT22;50151;52.030;5.350;2023-12-29T05:10:12;10.00;99.90
63966;DHT22;50151;52.030;5.350;2023-12-29T05:12:39;9.90;99.90
63966;DHT22;50151;52.030;5.350;2023-12-29T05:15:06;9.90;99.90
63966;DHT22;50151;52.030;5.350;2023-12-29T05:17:33;10.00;99.90
63966;DHT22;50151;52.030;5.350;2023-12-29T05:20:00;9.90;99.90
63966;DHT22;50151;52.030;5.350;2023-12-29T05:22:27;10.00;99.90
63966;DHT22;50151;52.030;5.350;2023-12-29T05:24:53;10.00;99.90
63966;DHT22;50151;52.030;5.350;2023-12-29T05:27:24;10.00;99.90
63966;DHT22;50151;52.030;5.350;2023-12-29T05:29:51;10.00;99.90
63966;DHT22;50151;52.030;5.350;2023-12-29T05:32:17;10.00;99.90
63966;DHT22;50151;52.030;5.350;2023-12-29T05:34:44;10.00;99.90
63966;DHT22;50151;52.030;5.350;2023-12-29T05:37:11;10.00;99.90
63966;DHT22;50151;52.030;5.350;2023-12-29T05:39:41;10.00;99.90
63966;DHT22;50151;52.030;5.350;2023-12-29T05:42:08;9.90;99.90
63966;DHT22;50151;52.030;5.350;2023-12-29T05:44:38;10.00;99.90
63966;DHT22;50151;52.030;5.350;2023-12-29T05:47:05;10.00;99.90
63966;DHT22;50151;52.030;5.350;2023-12-29T05:49:32;10.00;99.90
63966;DHT22;50151;52.030;5.350;2023-12-29T05:52:05;10.00;99.90
63966;DHT22;50151;52.030;5.350;2023-12-29T05:54:32;10.00;99.90
63966;DHT22;50151;52.030;5.350;2023-12-29T05:56:59;10.00;99.90
63966;DHT22;50151;52.030;5.350;2023-12-29T05:59:26;10.00;99.90
63966;DHT22;50151;52.030;5.350;2023-12-29T06:01:53;10.10;99.90
63966;DHT22;50151;52.030;5.350;2023-12-29T06:04:20;10.00;99.90
63966;DHT22;50151;52.030;5.350;2023-12-29T06:06:47;10.00;99.90
63966;DHT22;50151;52.030;5.350;2023-12-29T06:09:13;10.10;99.90
63966;DHT22;50151;52.030;5.350;2023-12-29T06:11:40;10.00;99.90
63966;DHT22;50151;52.030;5.350;2023-12-29T06:14:07;10.00;99.90
63966;DHT22;50151;52.030;5.350;2023-12-29T06:16:33;10.10;99.90
63966;DHT22;50151;52.030;5.350;2023-12-29T06:19:00;10.10;99.90
63966;DHT22;50151;52.030;5.350;2023-12-29T06:21:27;10.10;99.90
63966;DHT22;50151;52.030;5.350;2023-12-29T06:23:54;10.10;99.90
63966;DHT22;50151;52.030;5.350;2023-12-29T06:26:21;10.10;99.90
63966;DHT22;50151;52.030;5.350;2023-12-29T06:28:49;10.10;99.90
63966;DHT22;50151;52.030;5.350;2023-12-29T06:31:17;10.10;99.90
63966;DHT22;50151;52.030;5.350;2023-12-29T06:33:44;10.10;99.90
63966;DHT22;50151;52.030;5.350;2023-12-29T06:36:12;10.10;99.90
63966;DHT22;50151;52.030;5.350;2023-12-29T06:38:39;10.10;99.90
63966;DHT22;50151;52.030;5.350;2023-12-29T06:41:06;10.10;99.90
63966;DHT22;50151;52.030;5.350;2023-12-29T06:43:33;10.10;99.90
63966;DHT22;50151;52.030;5.350;2023-12-29T06:46:00;10.10;99.90
63966;DHT22;50151;52.030;5.350;2023-12-29T06:48:27;10.10;99.90
63966;DHT22;50151;52.030;5.350;2023-12-29T06:50:54;10.10;99.90
63966;DHT22;50151;52.030;5.350;2023-12-29T06:53:21;10.10;99.90
63966;DHT22;50151;52.030;5.350;2023-12-29T06:55:47;10.10;99.90
63966;DHT22;50151;52.030;5.350;2023-12-29T06:58:14;10.10;99.90
63966;DHT22;50151;52.030;5.350;2023-12-29T07:00:41;10.00;99.90
63966;DHT22;50151;52.030;5.350;2023-12-29T07:03:13;10.10;99.90
63966;DHT22;50151;52.030;5.350;2023-12-29T07:05:40;10.00;99.90
63966;DHT22;50151;52.030;5.350;2023-12-29T07:08:07;10.00;99.90
63966;DHT22;50151;52.030;5.350;2023-12-29T07:10:34;10.00;99.90
63966;DHT22;50151;52.030;5.350;2023-12-29T07:13:01;9.90;99.90
63966;DHT22;50151;52.030;5.350;2023-12-29T07:15:27;9.90;99.90
63966;DHT22;50151;52.030;5.350;2023-12-29T07:17:54;9.90;99.90
63966;DHT22;50151;52.030;5.350;2023-12-29T07:20:21;9.90;99.90
63966;DHT22;50151;52.030;5.350;2023-12-29T07:22:48;9.90;99.90
63966;DHT22;50151;52.030;5.350;2023-12-29T07:25:14;9.80;99.90
63966;DHT22;50151;52.030;5.350;2023-12-29T07:27:41;9.80;99.90
63966;DHT22;50151;52.030;5.350;2023-12-29T07:30:09;9.80;99.90
63966;DHT22;50151;52.030;5.350;2023-12-29T07:32:36;9.80;99.90
63966;DHT22;50151;52.030;5.350;2023-12-29T07:35:03;9.80;99.90
63966;DHT22;50151;52.030;5.350;2023-12-29T07:37:30;9.70;99.90
63966;DHT22;50151;52.030;5.350;2023-12-29T07:39:57;9.70;99.90
63966;DHT22;50151;52.030;5.350;2023-12-29T07:42:24;9.60;99.90
63966;DHT22;50151;52.030;5.350;2023-12-29T07:44:50;9.60;99.90
63966;DHT22;50151;52.030;5.350;2023-12-29T07:47:18;9.60;99.90
63966;DHT22;50151;52.030;5.350;2023-12-29T07:49:44;9.60;99.90
63966;DHT22;50151;52.030;5.350;2023-12-29T07:52:12;9.70;99.90
63966;DHT22;50151;52.030;5.350;2023-12-29T07:54:39;9.70;99.90
63966;DHT22;50151;52.030;5.350;2023-12-29T07:57:06;9.70;99.90
63966;DHT22;50151;52.030;5.350;2023-12-29T07:59:33;9.80;99.90
63966;DHT22;50151;52.030;5.350;2023-12-29T08:02:00;9.80;99.90
63966;DHT22;50151;52.030;5.350;2023-12-29T08:04:26;9.90;99.90
63966;DHT22;50151;52.030;5.350;2023-12-29T08:06:53;9.90;99.90
63966;DHT22;50151;52.030;5.350;2023-12-29T08:09:20;9.90;99.90
63966;DHT22;50151;52.030;5.350;2023-12-29T08:11:47;9.90;99.90
63966;DHT22;50151;52.030;5.350;2023-12-29T08:14:14;10.00;99.90
63966;DHT22;50151;52.030;5.350;2023-12-29T08:16:41;9.90;99.90
63966;DHT22;50151;52.030;5.350;2023-12-29T08:19:09;9.90;99.90
63966;DHT22;50151;52.030;5.350;2023-12-29T08:21:37;9.90;99.90
63966;DHT22;50151;52.030;5.350;2023-12-29T08:24:04;9.90;99.90
63966;DHT22;50151;52.030;5.350;2023-12-29T08:26:30;9.90;99.90
63966;DHT22;50151;52.030;5.350;2023-12-29T08:28:57;10.00;99.90
63966;DHT22;50151;52.030;5.350;2023-12-29T08:31:24;10.00;99.90
63966;DHT22;50151;52.030;5.350;2023-12-29T08:33:53;10.00;99.90
63966;DHT22;50151;52.030;5.350;2023-12-29T08:36:20;10.00;99.90
63966;DHT22;50151;52.030;5.350;2023-12-29T08:38:47;9.90;99.90
63966;DHT22;50151;52.030;5.350;2023-12-29T08:41:14;9.90;99.90
63966;DHT22;50151;52.030;5.350;2023-12-29T08:43:41;9.90;99.90
63966;DHT22;50151;52.030;5.350;2023-12-29T08:46:08;10.00;99.90
63966;DHT22;50151;52.030;5.350;2023-12-29T08:48:35;9.90;99.90
63966;DHT22;50151;52.030;5.350;2023-12-29T08:51:02;9.90;99.90
63966;DHT22;50151;52.030;5.350;2023-12-29T08:53:29;10.00;99.90
63966;DHT22;50151;52.030;5.350;2023-12-29T08:56:00;10.00;99.90
63966;DHT22;50151;52.030;5.350;2023-12-29T08:58:31;10.10;99.90
63966;DHT22;50151;52.030;5.350;2023-12-29T09:00:58;10.10;99.90
63966;DHT22;50151;52.030;5.350;2023-12-29T09:03:26;10.20;99.90
63966;DHT22;50151;52.030;5.350;2023-12-29T09:05:55;10.20;99.90
63966;DHT22;50151;52.030;5.350;2023-12-29T09:08:23;10.10;99.90
63966;DHT22;50151;52.030;5.350;2023-12-29T09:10:54;10.20;99.90
63966;DHT22;50151;52.030;5.350;2023-12-29T09:13:21;10.10;99.90
63966;DHT22;50151;52.030;5.350;2023-12-29T09:15:51;10.20;99.90
63966;DHT22;50151;52.030;5.350;2023-12-29T09:18:18;10.30;99.90
63966;DHT22;50151;52.030;5.350;2023-12-29T09:20:46;10.30;99.90
63966;DHT22;50151;52.030;5.350;2023-12-29T09:23:13;10.30;99.90
63966;DHT22;50151;52.030;5.350;2023-12-29T09:25:40;10.30;99.90
63966;DHT22;50151;52.030;5.350;2023-12-29T09:28:08;10.30;99.90
63966;DHT22;50151;52.030;5.350;2023-12-29T09:30:35;10.30;99.90
63966;DHT22;50151;52.030;5.350;2023-12-29T09:33:02;10.30;99.90
63966;DHT22;50151;52.030;5.350;2023-12-29T09:35:29;10.40;99.90
63966;DHT22;50151;52.030;5.350;2023-12-29T09:37:57;10.40;99.90
63966;DHT22;50151;52.030;5.350;2023-12-29T09:40:26;10.40;99.90
63966;DHT22;50151;52.030;5.350;2023-12-29T09:42:53;10.50;99.90
63966;DHT22;50151;52.030;5.350;2023-12-29T09:45:23;10.50;99.90
63966;DHT22;50151;52.030;5.350;2023-12-29T09:47:52;10.50;99.90
63966;DHT22;50151;52.030;5.350;2023-12-29T09:50:22;10.50;99.90
63966;DHT22;50151;52.030;5.350;2023-12-29T09:52:49;10.50;99.90
63966;DHT22;50151;52.030;5.350;2023-12-29T09:55:17;10.60;99.90
63966;DHT22;50151;52.030;5.350;2023-12-29T09:57:47;10.60;99.90
63966;DHT22;50151;52.030;5.350;2023-12-29T10:00:16;10.60;99.90
63966;DHT22;50151;52.030;5.350;2023-12-29T10:02:43;10.60;99.90
63966;DHT22;50151;52.030;5.350;2023-12-29T10:05:10;10.60;99.90
63966;DHT22;50151;52.030;5.350;2023-12-29T10:07:38;10.60;99.90
63966;DHT22;50151;52.030;5.350;2023-12-29T10:10:06;10.70;99.90
63966;DHT22;50151;52.030;5.350;2023-12-29T10:12:35;10.70;99.90
63966;DHT22;50151;52.030;5.350;2023-12-29T10:15:12;10.70;99.90
63966;DHT22;50151;52.030;5.350;2023-12-29T10:20:44;10.70;99.90
63966;DHT22;50151;52.030;5.350;2023-12-29T10:23:17;10.70;99.90
63966;DHT22;50151;52.030;5.350;2023-12-29T10:25:45;10.70;99.90
63966;DHT22;50151;52.030;5.350;2023-12-29T10:28:13;10.70;99.90
63966;DHT22;50151;52.030;5.350;2023-12-29T10:30:40;10.80;99.90
63966;DHT22;50151;52.030;5.350;2023-12-29T10:33:07;10.80;99.90
63966;DHT22;50151;52.030;5.350;2023-12-29T10:35:36;10.80;99.90
63966;DHT22;50151;52.030;5.350;2023-12-29T10:38:11;10.80;99.90
63966;DHT22;50151;52.030;5.350;2023-12-29T10:40:42;10.80;99.90
63966;DHT22;50151;52.030;5.350;2023-12-29T10:43:11;10.80;99.90
63966;DHT22;50151;52.030;5.350;2023-12-29T10:45:38;10.90;99.90
63966;DHT22;50151;52.030;5.350;2023-12-29T10:48:05;10.80;99.90
63966;DHT22;50151;52.030;5.350;2023-12-29T10:50:43;10.90;99.90
63966;DHT22;50151;52.030;5.350;2023-12-29T10:53:15;10.80;99.90
63966;DHT22;50151;52.030;5.350;2023-12-29T10:55:45;10.80;99.90
63966;DHT22;50151;52.030;5.350;2023-12-29T10:58:12;10.80;99.90
63966;DHT22;50151;52.030;5.350;2023-12-29T11:00:42;10.80;99.90
63966;DHT22;50151;52.030;5.350;2023-12-29T11:03:17;10.80;99.90
63966;DHT22;50151;52.030;5.350;2023-12-29T11:05:43;10.80;99.90
63966;DHT22;50151;52.030;5.350;2023-12-29T11:08:18;10.80;99.90
63966;DHT22;50151;52.030;5.350;2023-12-29T11:10:48;10.90;99.90
63966;DHT22;50151;52.030;5.350;2023-12-29T11:13:15;10.90;99.90
63966;DHT22;50151;52.030;5.350;2023-12-29T11:15:46;10.80;99.90
63966;DHT22;50151;52.030;5.350;2023-12-29T11:18:15;10.80;99.90
63966;DHT22;50151;52.030;5.350;2023-12-29T11:20:45;10.80;99.90
63966;DHT22;50151;52.030;5.350;2023-12-29T11:23:13;10.80;99.90
63966;DHT22;50151;52.030;5.350;2023-12-29T11:25:40;10.80;99.90
63966;DHT22;50151;52.030;5.350;2023-12-29T11:28:10;10.90;99.90
63966;DHT22;50151;52.030;5.350;2023-12-29T11:30:40;10.90;99.90
63966;DHT22;50151;52.030;5.350;2023-12-29T11:33:28;11.00;99.90
63966;DHT22;50151;52.030;5.350;2023-12-29T11:36:02;11.00;99.90
63966;DHT22;50151;52.030;5.350;2023-12-29T11:41:25;11.10;99.90
63966;DHT22;50151;52.030;5.350;2023-12-29T11:43:57;11.10;99.90
63966;DHT22;50151;52.030;5.350;2023-12-29T11:46:43;11.10;99.90
63966;DHT22;50151;52.030;5.350;2023-12-29T11:49:11;11.10;99.90
63966;DHT22;50151;52.030;5.350;2023-12-29T11:51:46;11.10;99.90
63966;DHT22;50151;52.030;5.350;2023-12-29T11:54:26;11.10;99.90
63966;DHT22;50151;52.030;5.350;2023-12-29T11:56:54;11.10;99.90
63966;DHT22;50151;52.030;5.350;2023-12-29T11:59:25;11.20;99.90
63966;DHT22;50151;52.030;5.350;2023-12-29T12:01:53;11.10;99.90
63966;DHT22;50151;52.030;5.350;2023-12-29T12:07:16;11.10;99.90
63966;DHT22;50151;52.030;5.350;2023-12-29T12:09:44;11.10;99.90
63966;DHT22;50151;52.030;5.350;2023-12-29T12:12:10;11.10;99.90
63966;DHT22;50151;52.030;5.350;2023-12-29T12:14:47;11.00;99.90
63966;DHT22;50151;52.030;5.350;2023-12-29T12:17:47;11.00;99.90
63966;DHT22;50151;52.030;5.350;2023-12-29T12:20:16;11.10;99.90
63966;DHT22;50151;52.030;5.350;2023-12-29T12:22:44;11.10;99.90
63966;DHT22;50151;52.030;5.350;2023-12-29T12:25:12;11.20;99.90
63966;DHT22;50151;52.030;5.350;2023-12-29T12:27:39;11.20;99.90
63966;DHT22;50151;52.030;5.350;2023-12-29T12:30:06;11.30;99.90
63966;DHT22;50151;52.030;5.350;2023-12-29T12:32:36;11.30;99.90
63966;DHT22;50151;52.030;5.350;2023-12-29T12:35:03;11.30;99.90
63966;DHT22;50151;52.030;5.350;2023-12-29T12:37:41;11.30;99.90
63966;DHT22;50151;52.030;5.350;2023-12-29T12:40:08;11.30;99.90
63966;DHT22;50151;52.030;5.350;2023-12-29T12:42:39;11.30;99.90
63966;DHT22;50151;52.030;5.350;2023-12-29T12:45:13;11.30;99.90
63966;DHT22;50151;52.030;5.350;2023-12-29T12:47:51;11.30;99.90
63966;DHT22;50151;52.030;5.350;2023-12-29T12:50:18;11.30;99.90
63966;DHT22;50151;52.030;5.350;2023-12-29T12:52:46;11.40;99.90
63966;DHT22;50151;52.030;5.350;2023-12-29T12:55:13;11.40;99.90
63966;DHT22;50151;52.030;5.350;2023-12-29T12:57:41;11.50;99.90
63966;DHT22;50151;52.030;5.350;2023-12-29T13:00:08;11.40;99.90
63966;DHT22;50151;52.030;5.350;2023-12-29T13:02:36;11.40;99.90
63966;DHT22;50151;52.030;5.350;2023-12-29T13:05:04;11.40;99.90
63966;DHT22;50151;52.030;5.350;2023-12-29T13:07:35;11.30;99.90
63966;DHT22;50151;52.030;5.350;2023-12-29T13:10:02;11.40;99.90
63966;DHT22;50151;52.030;5.350;2023-12-29T13:12:30;11.30;99.90
63966;DHT22;50151;52.030;5.350;2023-12-29T13:15:07;11.20;99.90
63966;DHT22;50151;52.030;5.350;2023-12-29T13:17:36;11.30;99.90
63966;DHT22;50151;52.030;5.350;2023-12-29T13:20:03;11.20;99.90
63966;DHT22;50151;52.030;5.350;2023-12-29T13:22:31;11.20;99.90
63966;DHT22;50151;52.030;5.350;2023-12-29T13:24:58;11.20;99.90
63966;DHT22;50151;52.030;5.350;2023-12-29T13:27:26;11.10;99.90
63966;DHT22;50151;52.030;5.350;2023-12-29T13:29:53;11.10;99.90
63966;DHT22;50151;52.030;5.350;2023-12-29T13:32:22;11.10;99.90
63966;DHT22;50151;52.030;5.350;2023-12-29T13:43:27;11.20;99.90
63966;DHT22;50151;52.030;5.350;2023-12-29T13:45:56;11.10;99.90
63966;DHT22;50151;52.030;5.350;2023-12-29T13:48:23;11.10;99.90
63966;DHT22;50151;52.030;5.350;2023-12-29T13:50:50;11.10;99.90
63966;DHT22;50151;52.030;5.350;2023-12-29T13:53:18;11.00;99.90
63966;DHT22;50151;52.030;5.350;2023-12-29T13:55:45;11.00;99.90
63966;DHT22;50151;52.030;5.350;2023-12-29T13:58:12;11.10;99.90
63966;DHT22;50151;52.030;5.350;2023-12-29T14:00:40;11.00;99.90
63966;DHT22;50151;52.030;5.350;2023-12-29T14:03:15;11.00;99.90
63966;DHT22;50151;52.030;5.350;2023-12-29T14:05:55;10.90;99.90
63966;DHT22;50151;52.030;5.350;2023-12-29T14:08:28;10.90;99.90
63966;DHT22;50151;52.030;5.350;2023-12-29T14:10:58;10.90;99.90
63966;DHT22;50151;52.030;5.350;2023-12-29T14:13:25;10.90;99.90
63966;DHT22;50151;52.030;5.350;2023-12-29T14:15:52;10.80;99.90
63966;DHT22;50151;52.030;5.350;2023-12-29T14:21:40;10.70;99.90
63966;DHT22;50151;52.030;5.350;2023-12-29T14:24:15;10.70;99.90
63966;DHT22;50151;52.030;5.350;2023-12-29T14:26:54;10.70;99.90
63966;DHT22;50151;52.030;5.350;2023-12-29T14:29:23;10.70;99.90
63966;DHT22;50151;52.030;5.350;2023-12-29T14:31:50;10.60;99.90
63966;DHT22;50151;52.030;5.350;2023-12-29T14:34:18;10.60;99.90
63966;DHT22;50151;52.030;5.350;2023-12-29T14:36:46;10.50;99.90
63966;DHT22;50151;52.030;5.350;2023-12-29T14:39:13;10.60;99.90
63966;DHT22;50151;52.030;5.350;2023-12-29T14:41:42;10.60;99.90
63966;DHT22;50151;52.030;5.350;2023-12-29T14:44:09;10.60;99.90
63966;DHT22;50151;52.030;5.350;2023-12-29T14:46:36;10.60;99.90
63966;DHT22;50151;52.030;5.350;2023-12-29T14:49:03;10.50;99.90
63966;DHT22;50151;52.030;5.350;2023-12-29T14:51:31;10.60;99.90
63966;DHT22;50151;52.030;5.350;2023-12-29T14:53:57;10.40;99.90
63966;DHT22;50151;52.030;5.350;2023-12-29T14:56:24;10.30;99.90
63966;DHT22;50151;52.030;5.350;2023-12-29T14:58:51;10.10;99.90
63966;DHT22;50151;52.030;5.350;2023-12-29T15:01:18;10.00;99.90
63966;DHT22;50151;52.030;5.350;2023-12-29T15:03:45;9.90;99.90
63966;DHT22;50151;52.030;5.350;2023-12-29T15:06:12;10.00;99.90
63966;DHT22;50151;52.030;5.350;2023-12-29T15:08:39;9.90;99.90
63966;DHT22;50151;52.030;5.350;2023-12-29T15:11:06;9.80;99.90
63966;DHT22;50151;52.030;5.350;2023-12-29T15:13:34;9.90;99.90
63966;DHT22;50151;52.030;5.350;2023-12-29T15:16:02;9.80;99.90
63966;DHT22;50151;52.030;5.350;2023-12-29T15:18:29;9.80;99.90
63966;DHT22;50151;52.030;5.350;2023-12-29T15:20:58;9.70;99.90
63966;DHT22;50151;52.030;5.350;2023-12-29T15:23:24;9.70;99.90
63966;DHT22;50151;52.030;5.350;2023-12-29T15:25:51;9.60;99.90
63966;DHT22;50151;52.030;5.350;2023-12-29T15:28:18;9.50;99.90
63966;DHT22;50151;52.030;5.350;2023-12-29T15:30:45;9.50;99.90
63966;DHT22;50151;52.030;5.350;2023-12-29T15:33:13;9.40;99.90
63966;DHT22;50151;52.030;5.350;2023-12-29T15:35:40;9.40;99.90
63966;DHT22;50151;52.030;5.350;2023-12-29T15:38:08;9.40;99.90
63966;DHT22;50151;52.030;5.350;2023-12-29T15:40:36;9.40;99.90
63966;DHT22;50151;52.030;5.350;2023-12-29T15:43:03;9.40;99.90
63966;DHT22;50151;52.030;5.350;2023-12-29T15:45:30;9.40;99.90
63966;DHT22;50151;52.030;5.350;2023-12-29T15:47:57;9.40;99.90
63966;DHT22;50151;52.030;5.350;2023-12-29T15:50:25;9.40;99.90
63966;DHT22;50151;52.030;5.350;2023-12-29T15:52:52;9.40;99.90
63966;DHT22;50151;52.030;5.350;2023-12-29T15:55:19;9.50;99.90
63966;DHT22;50151;52.030;5.350;2023-12-29T15:57:46;9.50;99.90
63966;DHT22;50151;52.030;5.350;2023-12-29T16:00:14;9.70;99.90
63966;DHT22;50151;52.030;5.350;2023-12-29T16:02:44;9.80;99.90
63966;DHT22;50151;52.030;5.350;2023-12-29T16:05:11;9.80;99.90